createdAt,value
2023-03-27T00:00:52.390Z,9.443681
2023-03-27T00:01:51.721Z,9.443728
2023-03-27T00:02:51.862Z,9.443757
2023-03-27T00:03:51.850Z,9.443768
2023-03-27T00:04:51.670Z,9.443744
2023-03-27T00:05:51.696Z,9.443748
2023-03-27T00:06:51.690Z,9.443692
2023-03-27T00:07:51.668Z,9.443726
2023-03-27T00:08:51.667Z,9.443743
2023-03-27T00:09:51.645Z,9.443742
2023-03-27T00:10:51.635Z,9.443671
2023-03-27T00:11:51.667Z,9.443669
2023-03-27T00:12:51.624Z,9.443703
2023-03-27T00:13:51.634Z,9.443662
2023-03-27T00:14:51.649Z,9.443623
2023-03-27T00:15:51.612Z,9.443650
2023-03-27T00:16:51.630Z,9.443644
2023-03-27T00:17:51.624Z,9.443685
2023-03-27T00:18:51.680Z,9.443788
2023-03-27T00:19:51.573Z,9.443760
2023-03-27T00:20:51.594Z,9.443725
2023-03-27T00:21:51.580Z,9.443688
2023-03-27T00:22:51.577Z,9.443685
2023-03-27T00:23:51.600Z,9.443655
2023-03-27T00:24:52.555Z,9.443616
2023-03-27T00:25:51.528Z,9.443616
2023-03-27T00:26:51.601Z,9.443679
2023-03-27T00:27:51.524Z,9.443706
2023-03-27T00:28:51.528Z,9.443721
2023-03-27T00:29:51.521Z,9.443780
2023-03-27T00:30:51.568Z,9.443688
2023-03-27T00:31:51.542Z,9.443628
2023-03-27T00:32:51.564Z,9.443666
2023-03-27T00:33:51.493Z,9.443669
2023-03-27T00:34:51.547Z,9.443727
2023-03-27T00:35:51.566Z,9.443714
2023-03-27T00:36:51.498Z,9.443735
2023-03-27T00:37:51.553Z,9.443729
2023-03-27T00:38:51.481Z,9.443783
2023-03-27T00:39:51.592Z,9.443754
2023-03-27T00:40:51.477Z,9.443683
2023-03-27T00:41:51.437Z,9.443740
2023-03-27T00:42:51.441Z,9.443700
2023-03-27T00:43:51.426Z,9.443735
2023-03-27T00:44:51.435Z,9.443757
2023-03-27T00:45:51.501Z,9.443788
2023-03-27T00:46:51.420Z,9.443790
2023-03-27T00:47:51.478Z,9.443747
2023-03-27T00:48:51.465Z,9.443741
2023-03-27T00:49:51.432Z,9.443773
2023-03-27T00:50:51.383Z,9.443745
2023-03-27T00:51:51.388Z,9.443695
2023-03-27T00:52:51.376Z,9.443675
2023-03-27T00:53:51.368Z,9.443796
2023-03-27T00:54:51.430Z,9.443780
2023-03-27T00:55:51.401Z,9.443769
2023-03-27T00:56:51.368Z,9.443752
2023-03-27T00:57:51.336Z,9.443709
2023-03-27T00:58:51.386Z,9.443737
2023-03-27T00:59:51.368Z,9.443793
2023-03-27T01:00:51.326Z,9.443775
2023-03-27T01:01:51.389Z,9.443820
2023-03-27T01:02:51.390Z,9.443774
2023-03-27T01:03:51.469Z,9.443658
2023-03-27T01:04:51.321Z,9.443660
2023-03-27T01:05:51.318Z,9.443729
2023-03-27T01:06:51.290Z,9.443607
2023-03-27T01:08:00.079Z,9.443632
2023-03-27T01:08:52.320Z,9.443625
2023-03-27T01:09:51.272Z,9.443761
2023-03-27T01:10:51.280Z,9.443663
2023-03-27T01:11:51.264Z,9.443574
2023-03-27T01:12:51.229Z,9.443593
2023-03-27T01:13:51.256Z,9.443552
2023-03-27T01:14:51.272Z,9.443542
2023-03-27T01:15:51.284Z,9.443530
2023-03-27T01:16:51.229Z,9.443380
2023-03-27T01:17:51.234Z,9.443416
2023-03-27T01:18:51.231Z,9.443464
2023-03-27T01:19:51.183Z,9.443510
2023-03-27T01:20:51.906Z,9.443464
2023-03-27T01:21:51.185Z,9.443308
2023-03-27T01:22:51.180Z,9.443294
2023-03-27T01:24:00.253Z,9.443173
2023-03-27T01:24:52.199Z,9.443475
2023-03-27T01:25:51.154Z,9.443530
2023-03-27T01:26:51.179Z,9.443387
2023-03-27T01:27:51.166Z,9.443406
2023-03-27T01:28:51.177Z,9.443379
2023-03-27T01:29:51.133Z,9.443323
2023-03-27T01:30:51.122Z,9.443233
2023-03-27T01:31:51.218Z,9.443482
2023-03-27T01:32:51.221Z,9.443512
2023-03-27T01:33:51.125Z,9.443605
2023-03-27T01:35:01.792Z,9.443630
2023-03-27T01:35:52.158Z,9.443609
2023-03-27T01:36:51.100Z,9.443596
2023-03-27T01:37:51.088Z,9.443607
2023-03-27T01:38:51.092Z,9.443508
2023-03-27T01:39:51.050Z,9.443485
2023-03-27T01:40:51.065Z,9.443500
2023-03-27T01:41:51.079Z,9.443429
2023-03-27T01:42:51.048Z,9.443443
2023-03-27T01:43:51.085Z,9.443402
2023-03-27T01:44:51.112Z,9.443367
2023-03-27T01:45:51.104Z,9.443338
2023-03-27T01:46:51.093Z,9.443519
2023-03-27T01:47:51.072Z,9.443649
2023-03-27T01:48:51.070Z,9.443624
2023-03-27T01:49:51.002Z,9.443603
2023-03-27T01:50:51.006Z,9.443507
2023-03-27T01:51:51.010Z,9.443651
2023-03-27T01:52:50.980Z,9.443735
2023-03-27T01:53:50.957Z,9.443744
2023-03-27T01:54:50.955Z,9.443763
2023-03-27T01:55:51.000Z,9.443607
2023-03-27T01:56:51.015Z,9.443671
2023-03-27T01:57:50.957Z,9.443811
2023-03-27T01:58:51.034Z,9.443900
2023-03-27T01:59:50.938Z,9.443861
2023-03-27T02:00:53.051Z,9.443814
2023-03-27T02:01:50.953Z,9.443836
2023-03-27T02:02:50.906Z,9.443871
2023-03-27T02:03:50.921Z,9.443923
2023-03-27T02:04:50.962Z,9.443930
2023-03-27T02:05:50.914Z,9.443890
2023-03-27T02:06:50.969Z,9.443942
2023-03-27T02:07:50.916Z,9.443970
2023-03-27T02:08:50.874Z,9.443811
2023-03-27T02:09:50.871Z,9.443762
2023-03-27T02:10:50.879Z,9.443789
2023-03-27T02:11:50.879Z,9.443731
2023-03-27T02:12:50.887Z,9.443740
2023-03-27T02:13:51.814Z,9.443706
2023-03-27T02:14:50.850Z,9.443708
2023-03-27T02:15:50.914Z,9.443672
2023-03-27T02:16:50.813Z,9.443631
2023-03-27T02:17:50.922Z,9.443719
2023-03-27T02:18:50.883Z,9.443684
2023-03-27T02:19:50.865Z,9.443774
2023-03-27T02:20:50.813Z,9.443825
2023-03-27T02:21:50.790Z,9.443783
2023-03-27T02:22:50.810Z,9.443678
2023-03-27T02:23:50.810Z,9.443655
2023-03-27T02:24:50.765Z,9.443676
2023-03-27T02:25:50.826Z,9.443723
2023-03-27T02:26:50.823Z,9.443738
2023-03-27T02:27:50.764Z,9.443666
2023-03-27T02:28:50.805Z,9.443576
2023-03-27T02:29:50.749Z,9.443657
2023-03-27T02:31:06.997Z,9.443408
2023-03-27T02:31:51.781Z,9.443105
2023-03-27T02:32:50.751Z,9.443538
2023-03-27T02:33:50.742Z,9.443708
2023-03-27T02:34:50.717Z,9.443775
2023-03-27T02:35:50.795Z,9.443767
2023-03-27T02:36:50.710Z,9.443647
2023-03-27T02:37:50.718Z,9.443822
2023-03-27T02:38:50.716Z,9.443616
2023-03-27T02:39:50.718Z,9.443729
2023-03-27T02:40:50.689Z,9.443806
2023-03-27T02:41:50.694Z,9.443876
2023-03-27T02:42:50.667Z,9.443816
2023-03-27T02:43:50.696Z,9.443729
2023-03-27T02:44:50.662Z,9.443820
2023-03-27T02:45:50.725Z,9.443839
2023-03-27T02:46:50.664Z,9.443786
2023-03-27T02:47:50.695Z,9.443770
2023-03-27T02:48:50.619Z,9.443778
2023-03-27T02:49:50.615Z,9.443654
2023-03-27T02:50:50.623Z,9.443703
2023-03-27T02:51:50.657Z,9.443798
2023-03-27T02:52:50.619Z,9.443758
2023-03-27T02:53:50.609Z,9.443752
2023-03-27T02:54:50.617Z,9.443773
2023-03-27T02:55:50.605Z,9.443782
2023-03-27T02:56:50.582Z,9.443747
2023-03-27T02:57:52.063Z,9.443844
2023-03-27T02:58:50.669Z,9.443786
2023-03-27T02:59:50.577Z,9.443735
2023-03-27T03:00:51.360Z,9.443834
2023-03-27T03:01:50.585Z,9.443810
2023-03-27T03:02:50.616Z,9.443803
2023-03-27T03:03:50.582Z,9.443778
2023-03-27T03:04:50.514Z,9.443788
2023-03-27T03:05:50.534Z,9.443778
2023-03-27T03:06:50.525Z,9.443776
2023-03-27T03:07:50.545Z,9.443739
2023-03-27T03:08:50.525Z,9.443786
2023-03-27T03:09:50.518Z,9.443708
2023-03-27T03:10:50.526Z,9.443768
2023-03-27T03:11:50.485Z,9.443805
2023-03-27T03:12:50.520Z,9.443754
2023-03-27T03:13:50.493Z,9.443728
2023-03-27T03:14:50.477Z,9.443692
2023-03-27T03:15:50.696Z,9.443701
2023-03-27T03:16:50.497Z,9.443718
2023-03-27T03:17:50.479Z,9.443714
2023-03-27T03:18:51.433Z,9.443750
2023-03-27T03:19:50.447Z,9.443614
2023-03-27T03:20:50.453Z,9.443773
2023-03-27T03:21:50.478Z,9.443776
2023-03-27T03:22:50.467Z,9.443778
2023-03-27T03:23:58.196Z,9.443768
2023-03-27T03:24:51.433Z,9.443748
2023-03-27T03:25:50.409Z,9.443729
2023-03-27T03:26:50.440Z,9.443784
2023-03-27T03:27:50.405Z,9.443717
2023-03-27T03:29:00.111Z,9.443726
2023-03-27T03:29:51.377Z,9.443691
2023-03-27T03:30:50.551Z,9.443716
2023-03-27T03:31:50.377Z,9.443700
2023-03-27T03:32:50.459Z,9.443746
2023-03-27T03:33:50.343Z,9.443785
2023-03-27T03:34:50.338Z,9.443773
2023-03-27T03:35:51.433Z,9.443764
2023-03-27T03:36:50.430Z,9.443707
2023-03-27T03:37:51.064Z,9.443658
2023-03-27T03:38:51.373Z,9.443769
2023-03-27T03:39:50.320Z,9.443823
2023-03-27T03:41:11.439Z,9.443786
2023-03-27T03:41:50.338Z,9.443699
2023-03-27T03:42:50.390Z,9.443656
2023-03-27T03:43:50.345Z,9.443666
2023-03-27T03:44:50.305Z,9.443726
2023-03-27T03:45:50.327Z,9.443789
2023-03-27T03:46:50.346Z,9.443791
2023-03-27T03:47:50.401Z,9.443763
2023-03-27T03:48:50.324Z,9.443767
2023-03-27T03:49:50.353Z,9.443771
2023-03-27T03:50:50.287Z,9.443658
2023-03-27T03:52:04.375Z,9.443761
2023-03-27T03:52:51.261Z,9.443769
2023-03-27T03:53:50.277Z,9.443713
2023-03-27T03:54:50.273Z,9.443680
2023-03-27T03:55:50.251Z,9.443677
2023-03-27T03:56:50.400Z,9.443723
2023-03-27T03:57:50.333Z,9.443696
2023-03-27T03:58:50.200Z,9.443679
2023-03-27T03:59:50.237Z,9.443671
2023-03-27T04:00:51.202Z,9.443688
2023-03-27T04:01:50.260Z,9.443677
2023-03-27T04:02:50.299Z,9.443697
2023-03-27T04:03:50.303Z,9.443702
2023-03-27T04:04:50.190Z,9.443705
2023-03-27T04:05:50.170Z,9.443695
2023-03-27T04:06:50.169Z,9.443716
2023-03-27T04:07:50.155Z,9.443654
2023-03-27T04:08:50.170Z,9.443640
2023-03-27T04:09:50.175Z,9.443624
2023-03-27T04:10:50.158Z,9.443675
2023-03-27T04:11:50.111Z,9.443688
2023-03-27T04:12:50.190Z,9.443708
2023-03-27T04:13:50.401Z,9.443695
2023-03-27T04:14:50.307Z,9.443651
2023-03-27T04:15:50.328Z,9.443702
2023-03-27T04:16:50.471Z,9.443711
2023-03-27T04:17:50.423Z,9.443793
2023-03-27T04:18:50.521Z,9.443793
2023-03-27T04:19:50.331Z,9.443779
2023-03-27T04:20:51.033Z,9.443748
2023-03-27T04:21:50.147Z,9.443705
2023-03-27T04:22:51.347Z,9.443778
2023-03-27T04:23:50.171Z,9.443851
2023-03-27T04:24:50.203Z,9.443823
2023-03-27T04:25:50.213Z,9.443905
2023-03-27T04:26:50.286Z,9.443880
2023-03-27T04:27:50.169Z,9.443776
2023-03-27T04:28:50.169Z,9.443871
2023-03-27T04:29:50.146Z,9.443862
2023-03-27T04:30:51.324Z,9.443749
2023-03-27T04:31:50.510Z,9.443670
2023-03-27T04:32:50.167Z,9.443743
2023-03-27T04:33:50.556Z,9.443749
2023-03-27T04:34:50.269Z,9.443745
2023-03-27T04:36:06.581Z,9.443696
2023-03-27T04:36:51.617Z,9.443690
2023-03-27T04:37:50.091Z,9.443720
2023-03-27T04:38:50.205Z,9.443775
2023-03-27T04:39:51.055Z,9.443787
2023-03-27T04:40:50.197Z,9.443818
2023-03-27T04:41:50.077Z,9.443726
2023-03-27T04:42:50.097Z,9.443762
2023-03-27T04:43:50.219Z,9.443670
2023-03-27T04:44:50.007Z,9.443689
2023-03-27T04:45:49.938Z,9.443660
2023-03-27T04:46:49.934Z,9.443636
2023-03-27T04:47:50.003Z,9.443642
2023-03-27T04:48:49.895Z,9.443655
2023-03-27T04:49:49.906Z,9.443711
2023-03-27T04:50:49.908Z,9.443719
2023-03-27T04:51:49.946Z,9.443700
2023-03-27T04:52:50.718Z,9.443769
2023-03-27T04:53:50.929Z,9.443799
2023-03-27T04:54:49.960Z,9.443645
2023-03-27T04:55:49.843Z,9.443627
2023-03-27T04:56:49.889Z,9.443644
2023-03-27T04:57:49.838Z,9.443668
2023-03-27T04:58:49.900Z,9.443829
2023-03-27T04:59:50.870Z,9.443781
2023-03-27T05:00:49.938Z,9.443871
2023-03-27T05:01:50.033Z,9.443766
2023-03-27T05:02:50.410Z,9.443749
2023-03-27T05:03:49.831Z,9.443735
2023-03-27T05:04:49.899Z,9.443747
2023-03-27T05:05:49.818Z,9.443761
2023-03-27T05:06:49.793Z,9.443771
2023-03-27T05:07:49.796Z,9.443778
2023-03-27T05:08:50.805Z,9.443758
2023-03-27T05:09:49.844Z,9.443781
2023-03-27T05:10:49.813Z,9.443765
2023-03-27T05:11:49.837Z,9.443787
2023-03-27T05:12:49.773Z,9.443756
2023-03-27T05:13:49.754Z,9.443829
2023-03-27T05:14:49.761Z,9.443709
2023-03-27T05:15:49.764Z,9.443772
2023-03-27T05:16:49.778Z,9.443787
2023-03-27T05:17:49.764Z,9.443835
2023-03-27T05:18:49.779Z,9.443791
2023-03-27T05:19:49.711Z,9.443784
2023-03-27T05:20:49.724Z,9.443836
2023-03-27T05:21:49.692Z,9.443797
2023-03-27T05:22:49.737Z,9.443702
2023-03-27T05:23:49.669Z,9.443797
2023-03-27T05:24:49.679Z,9.443691
2023-03-27T05:26:00.182Z,9.443694
2023-03-27T05:26:50.680Z,9.443690
2023-03-27T05:27:49.680Z,9.443795
2023-03-27T05:28:49.669Z,9.443709
2023-03-27T05:29:49.646Z,9.443810
2023-03-27T05:30:49.674Z,9.443687
2023-03-27T05:31:49.634Z,9.443703
2023-03-27T05:32:49.724Z,9.443685
2023-03-27T05:33:49.649Z,9.443823
2023-03-27T05:34:49.638Z,9.443604
2023-03-27T05:35:49.635Z,9.443573
2023-03-27T05:36:49.619Z,9.443705
2023-03-27T05:37:49.649Z,9.443640
2023-03-27T05:38:49.645Z,9.443696
2023-03-27T05:39:49.588Z,9.443732
2023-03-27T05:40:49.586Z,9.443608
2023-03-27T05:41:49.599Z,9.443635
2023-03-27T05:42:49.650Z,9.443725
2023-03-27T05:43:51.132Z,9.443822
2023-03-27T05:44:50.576Z,9.443771
2023-03-27T05:45:49.657Z,9.443742
2023-03-27T05:46:49.587Z,9.443643
2023-03-27T05:47:49.634Z,9.443733
2023-03-27T05:48:49.553Z,9.443699
2023-03-27T05:49:49.516Z,9.443572
2023-03-27T05:50:49.535Z,9.443703
2023-03-27T05:51:49.560Z,9.443590
2023-03-27T05:52:49.548Z,9.443674
2023-03-27T05:53:49.548Z,9.443728
2023-03-27T05:54:49.488Z,9.443684
2023-03-27T05:55:49.518Z,9.443685
2023-03-27T05:56:50.508Z,9.443639
2023-03-27T05:57:49.496Z,9.443689
2023-03-27T05:58:49.480Z,9.443747
2023-03-27T05:59:49.517Z,9.443766
2023-03-27T06:00:49.474Z,9.443613
2023-03-27T06:01:49.451Z,9.443707
2023-03-27T06:02:49.580Z,9.443771
2023-03-27T06:03:49.557Z,9.443682
2023-03-27T06:04:49.437Z,9.443574
2023-03-27T06:05:49.432Z,9.443769
2023-03-27T06:06:49.430Z,9.443640
2023-03-27T06:07:49.431Z,9.443669
2023-03-27T06:08:49.419Z,9.443650
2023-03-27T06:09:49.420Z,9.443711
2023-03-27T06:10:49.461Z,9.443676
2023-03-27T06:11:49.434Z,9.443727
2023-03-27T06:12:49.396Z,9.443678
2023-03-27T06:13:49.436Z,9.443562
2023-03-27T06:14:49.355Z,9.443494
2023-03-27T06:15:49.405Z,9.443593
2023-03-27T06:16:49.392Z,9.443565
2023-03-27T06:17:49.427Z,9.443545
2023-03-27T06:18:49.375Z,9.443559
2023-03-27T06:19:49.318Z,9.443567
2023-03-27T06:20:49.372Z,9.443566
2023-03-27T06:21:49.330Z,9.443532
2023-03-27T06:22:49.348Z,9.443562
2023-03-27T06:23:49.353Z,9.443617
2023-03-27T06:24:49.402Z,9.443521
2023-03-27T06:25:49.349Z,9.443551
2023-03-27T06:26:49.317Z,9.443565
2023-03-27T06:27:49.298Z,9.443525
2023-03-27T06:28:49.338Z,9.443423
2023-03-27T06:29:49.293Z,9.443425
2023-03-27T06:30:49.288Z,9.443430
2023-03-27T06:31:49.285Z,9.443500
2023-03-27T06:32:49.308Z,9.443539
2023-03-27T06:33:49.282Z,9.443549
2023-03-27T06:34:49.300Z,9.443661
2023-03-27T06:35:53.151Z,9.443705
2023-03-27T06:36:49.220Z,9.443803
2023-03-27T06:37:50.836Z,9.443777
2023-03-27T06:38:50.231Z,9.443735
2023-03-27T06:39:49.237Z,9.443704
2023-03-27T06:40:49.244Z,9.443691
2023-03-27T06:41:49.297Z,9.443745
2023-03-27T06:42:49.232Z,9.443770
2023-03-27T06:43:49.229Z,9.443724
2023-03-27T06:44:49.884Z,9.443672
2023-03-27T06:45:49.224Z,9.443674
2023-03-27T06:46:49.266Z,9.443713
2023-03-27T06:47:54.383Z,9.443780
2023-03-27T06:48:51.273Z,9.443805
2023-03-27T06:49:49.237Z,9.443805
2023-03-27T06:50:49.175Z,9.443766
2023-03-27T06:51:49.150Z,9.443719
2023-03-27T06:52:49.146Z,9.443727
2023-03-27T06:53:49.131Z,9.443695
2023-03-27T06:54:49.127Z,9.443681
2023-03-27T06:55:49.113Z,9.443658
2023-03-27T06:56:49.142Z,9.443695
2023-03-27T06:57:49.140Z,9.443704
2023-03-27T06:58:49.097Z,9.443725
2023-03-27T06:59:49.073Z,9.443812
2023-03-27T07:00:49.386Z,9.443849
2023-03-27T07:01:49.181Z,9.443752
2023-03-27T07:02:49.274Z,9.443760
2023-03-27T07:03:49.077Z,9.443769
2023-03-27T07:05:01.644Z,9.443738
2023-03-27T07:05:51.949Z,9.443678
2023-03-27T07:06:49.150Z,9.443712
2023-03-27T07:07:50.079Z,9.443755
2023-03-27T07:08:49.886Z,9.443729
2023-03-27T07:09:49.078Z,9.443732
2023-03-27T07:10:59.954Z,9.443779
2023-03-27T07:11:51.045Z,9.443796
2023-03-27T07:12:49.108Z,9.443765
2023-03-27T07:13:49.372Z,9.443772
2023-03-27T07:14:50.184Z,9.443785
2023-03-27T07:15:49.068Z,9.443777
2023-03-27T07:16:49.244Z,9.443752
2023-03-27T07:17:49.524Z,9.443799
2023-03-27T07:18:49.150Z,9.443822
2023-03-27T07:19:49.001Z,9.443783
2023-03-27T07:20:49.025Z,9.443809
2023-03-27T07:21:48.939Z,9.443790
2023-03-27T07:22:48.996Z,9.443702
2023-03-27T07:23:49.189Z,9.443753
2023-03-27T07:24:49.229Z,9.443745
2023-03-27T07:25:49.203Z,9.443806
2023-03-27T07:26:48.962Z,9.443760
2023-03-27T07:27:48.986Z,9.443775
2023-03-27T07:28:48.985Z,9.443685
2023-03-27T07:29:49.081Z,9.443629
2023-03-27T07:30:49.931Z,9.443553
2023-03-27T07:31:56.232Z,9.443645
2023-03-27T07:32:51.021Z,9.443693
2023-03-27T07:33:49.973Z,9.443706
2023-03-27T07:34:48.886Z,9.443686
2023-03-27T07:35:48.953Z,9.443673
2023-03-27T07:36:48.853Z,9.443759
2023-03-27T07:37:48.872Z,9.443625
2023-03-27T07:38:48.835Z,9.443637
2023-03-27T07:39:48.834Z,9.443660
2023-03-27T07:40:48.863Z,9.443774
2023-03-27T07:41:48.853Z,9.443732
2023-03-27T07:42:48.825Z,9.443626
2023-03-27T07:43:48.857Z,9.443652
2023-03-27T07:44:48.863Z,9.443486
2023-03-27T07:45:48.864Z,9.443567
2023-03-27T07:46:48.978Z,9.443544
2023-03-27T07:47:48.901Z,9.443503
2023-03-27T07:48:48.779Z,9.443612
2023-03-27T07:49:49.442Z,9.443696
2023-03-27T07:50:48.772Z,9.443595
2023-03-27T07:51:48.818Z,9.443670
2023-03-27T07:52:48.764Z,9.443673
2023-03-27T07:53:48.770Z,9.443650
2023-03-27T07:54:48.739Z,9.443571
2023-03-27T07:55:48.797Z,9.443606
2023-03-27T07:56:48.945Z,9.443725
2023-03-27T07:58:00.825Z,9.443697
2023-03-27T07:58:50.743Z,9.443778
2023-03-27T07:59:48.780Z,9.443710
2023-03-27T08:00:48.784Z,9.443732
2023-03-27T08:01:48.724Z,9.443774
2023-03-27T08:02:48.921Z,9.443758
2023-03-27T08:03:48.947Z,9.443777
2023-03-27T08:04:48.846Z,9.443799
2023-03-27T08:05:48.671Z,9.443799
2023-03-27T08:06:48.710Z,9.443767
2023-03-27T08:07:48.685Z,9.443842
2023-03-27T08:08:48.719Z,9.443781
2023-03-27T08:09:48.680Z,9.443784
2023-03-27T08:10:48.643Z,9.443760
2023-03-27T08:11:48.640Z,9.443793
2023-03-27T08:12:48.646Z,9.443803
2023-03-27T08:13:48.669Z,9.443774
2023-03-27T08:14:48.594Z,9.443803
2023-03-27T08:15:48.673Z,9.443745
2023-03-27T08:16:48.651Z,9.443769
2023-03-27T08:17:48.611Z,9.443830
2023-03-27T08:18:48.632Z,9.443810
2023-03-27T08:19:48.594Z,9.443789
2023-03-27T08:20:48.626Z,9.443765
2023-03-27T08:21:48.590Z,9.443791
2023-03-27T08:22:48.594Z,9.443745
2023-03-27T08:23:48.571Z,9.443776
2023-03-27T08:24:48.562Z,9.443799
2023-03-27T08:25:48.655Z,9.443826
2023-03-27T08:26:48.554Z,9.443782
2023-03-27T08:27:48.534Z,9.443787
2023-03-27T08:28:48.578Z,9.443684
2023-03-27T08:29:48.749Z,9.443709
2023-03-27T08:30:48.701Z,9.443761
2023-03-27T08:31:49.392Z,9.443805
2023-03-27T08:32:48.642Z,9.443811
2023-03-27T08:33:48.896Z,9.443790
2023-03-27T08:34:48.526Z,9.443830
2023-03-27T08:35:48.491Z,9.443717
2023-03-27T08:36:48.453Z,9.443719
2023-03-27T08:37:48.462Z,9.443806
2023-03-27T08:38:48.461Z,9.443830
2023-03-27T08:39:48.537Z,9.443782
2023-03-27T08:40:48.427Z,9.443795
2023-03-27T08:41:48.462Z,9.443806
2023-03-27T08:42:48.449Z,9.443840
2023-03-27T08:43:48.493Z,9.443842
2023-03-27T08:44:48.406Z,9.443830
2023-03-27T08:45:48.452Z,9.443732
2023-03-27T08:46:48.471Z,9.443769
2023-03-27T08:47:48.403Z,9.443723
2023-03-27T08:48:48.400Z,9.443679
2023-03-27T08:49:48.422Z,9.443741
2023-03-27T08:50:48.360Z,9.443818
2023-03-27T08:51:48.366Z,9.443756
2023-03-27T08:52:48.359Z,9.443785
2023-03-27T08:53:48.358Z,9.443767
2023-03-27T08:54:48.318Z,9.443787
2023-03-27T08:55:48.392Z,9.443807
2023-03-27T08:56:48.378Z,9.443830
2023-03-27T08:57:48.361Z,9.443750
2023-03-27T08:58:48.351Z,9.443803
2023-03-27T08:59:48.359Z,9.443795
2023-03-27T09:00:48.284Z,9.443862
2023-03-27T09:01:48.314Z,9.443849
2023-03-27T09:02:48.471Z,9.443880
2023-03-27T09:03:48.354Z,9.443842
2023-03-27T09:04:48.282Z,9.443742
2023-03-27T09:05:48.285Z,9.443812
2023-03-27T09:06:48.281Z,9.443790
2023-03-27T09:07:48.271Z,9.443825
2023-03-27T09:08:48.258Z,9.443839
2023-03-27T09:09:48.265Z,9.443819
2023-03-27T09:10:48.230Z,9.443840
2023-03-27T09:11:48.233Z,9.443962
2023-03-27T09:12:48.210Z,9.443884
2023-03-27T09:13:48.286Z,9.443782
2023-03-27T09:14:48.199Z,9.443783
2023-03-27T09:15:48.311Z,9.443731
2023-03-27T09:16:48.205Z,9.443728
2023-03-27T09:17:48.208Z,9.443744
2023-03-27T09:18:48.209Z,9.443739
2023-03-27T09:19:48.208Z,9.443654
2023-03-27T09:20:48.192Z,9.443807
2023-03-27T09:21:48.294Z,9.443873
2023-03-27T09:22:48.629Z,9.443721
2023-03-27T09:23:48.144Z,9.443676
2023-03-27T09:24:48.133Z,9.443747
2023-03-27T09:25:48.145Z,9.443669
2023-03-27T09:26:55.240Z,9.443673
2023-03-27T09:27:50.101Z,9.443777
2023-03-27T09:28:49.042Z,9.443768
2023-03-27T09:29:48.096Z,9.443782
2023-03-27T09:30:48.107Z,9.443787
2023-03-27T09:31:48.123Z,9.443777
2023-03-27T09:32:48.105Z,9.443796
2023-03-27T09:33:48.062Z,9.443858
2023-03-27T09:34:48.164Z,9.443786
2023-03-27T09:35:48.080Z,9.443792
2023-03-27T09:36:48.076Z,9.443726
2023-03-27T09:37:48.060Z,9.443761
2023-03-27T09:38:48.048Z,9.443699
2023-03-27T09:39:48.065Z,9.443698
2023-03-27T09:40:48.024Z,9.443816
2023-03-27T09:44:59.696Z,9.443749
2023-03-27T09:45:59.725Z,9.443767
2023-03-27T09:46:59.703Z,9.443769
2023-03-27T09:47:59.778Z,9.443830
2023-03-27T09:48:59.710Z,9.443767
2023-03-27T09:49:59.628Z,9.443789
2023-03-27T09:50:59.642Z,9.443774
2023-03-27T09:51:59.657Z,9.443693
2023-03-27T09:52:59.595Z,9.443736
2023-03-27T09:53:59.651Z,9.443791
2023-03-27T09:54:59.588Z,9.443732
2023-03-27T09:56:01.065Z,9.443738
2023-03-27T09:56:59.681Z,9.443754
2023-03-27T09:58:00.550Z,9.443742
2023-03-27T09:58:59.587Z,9.443766
2023-03-27T09:59:59.635Z,9.443850
2023-03-27T10:00:59.708Z,9.443918
2023-03-27T10:01:59.534Z,9.443594
2023-03-27T10:02:59.560Z,9.443524
2023-03-27T10:03:59.681Z,9.443775
2023-03-27T10:04:59.717Z,9.443741
2023-03-27T10:05:59.504Z,9.443727
2023-03-27T10:06:59.511Z,9.443758
2023-03-27T10:07:59.487Z,9.443786
2023-03-27T10:08:59.818Z,9.443725
2023-03-27T10:09:59.622Z,9.443763
2023-03-27T10:10:59.620Z,9.443751
2023-03-27T10:11:59.485Z,9.443637
2023-03-27T10:12:59.539Z,9.443697
2023-03-27T10:13:59.447Z,9.443644
2023-03-27T10:15:01.682Z,9.443676
2023-03-27T10:15:59.455Z,9.443719
2023-03-27T10:16:59.460Z,9.443810
2023-03-27T10:17:59.593Z,9.443752
2023-03-27T10:18:59.441Z,9.443703
2023-03-27T10:19:59.444Z,9.443630
2023-03-27T10:20:59.599Z,9.443711
2023-03-27T10:21:59.551Z,9.443719
2023-03-27T10:22:59.426Z,9.443765
2023-03-27T10:23:59.422Z,9.443764
2023-03-27T10:24:59.396Z,9.443727
2023-03-27T10:25:59.401Z,9.443807
2023-03-27T10:26:59.404Z,9.443789
2023-03-27T10:27:59.406Z,9.443802
2023-03-27T10:28:59.406Z,9.443813
2023-03-27T10:29:59.370Z,9.443780
2023-03-27T10:30:59.481Z,9.443752
2023-03-27T10:31:59.426Z,9.443724
2023-03-27T10:32:59.378Z,9.443744
2023-03-27T10:33:59.352Z,9.443700
2023-03-27T10:34:59.338Z,9.443644
2023-03-27T10:35:59.393Z,9.443653
2023-03-27T10:36:59.323Z,9.443672
2023-03-27T10:37:59.300Z,9.443650
2023-03-27T10:38:59.352Z,9.443730
2023-03-27T10:39:59.306Z,9.443753
2023-03-27T10:41:00.324Z,9.443745
2023-03-27T10:41:59.344Z,9.443750
2023-03-27T10:42:59.287Z,9.443690
2023-03-27T10:43:59.320Z,9.443784
2023-03-27T10:44:59.276Z,9.443757
2023-03-27T10:45:59.319Z,9.443846
2023-03-27T10:46:59.393Z,9.443836
2023-03-27T10:47:59.297Z,9.443778
2023-03-27T10:48:59.218Z,9.443815
2023-03-27T10:49:59.233Z,9.443805
2023-03-27T10:50:59.332Z,9.443816
2023-03-27T10:51:59.251Z,9.443791
2023-03-27T10:52:59.272Z,9.443789
2023-03-27T10:53:59.326Z,9.443873
2023-03-27T10:54:59.221Z,9.443747
2023-03-27T10:55:59.226Z,9.443719
2023-03-27T10:56:59.295Z,9.443709
2023-03-27T10:57:59.920Z,9.443751
2023-03-27T10:58:59.196Z,9.443776
2023-03-27T10:59:59.165Z,9.443762
2023-03-27T11:00:59.406Z,9.443768
2023-03-27T11:01:59.250Z,9.443846
2023-03-27T11:02:59.240Z,9.443832
2023-03-27T11:03:59.191Z,9.443769
2023-03-27T11:04:59.143Z,9.443759
2023-03-27T11:05:59.177Z,9.443800
2023-03-27T11:06:59.189Z,9.443731
2023-03-27T11:07:59.119Z,9.443797
2023-03-27T11:08:59.121Z,9.443792
2023-03-27T11:09:59.115Z,9.443807
2023-03-27T11:10:59.302Z,9.443742
2023-03-27T11:11:59.117Z,9.443719
2023-03-27T11:12:59.236Z,9.443737
2023-03-27T11:13:59.163Z,9.443791
2023-03-27T11:14:59.109Z,9.443847
2023-03-27T11:15:59.120Z,9.443859
2023-03-27T11:16:59.153Z,9.443804
2023-03-27T11:17:59.155Z,9.443792
2023-03-27T11:18:59.075Z,9.443809
2023-03-27T11:19:59.062Z,9.443800
2023-03-27T11:20:59.156Z,9.443755
2023-03-27T11:21:59.105Z,9.443756
2023-03-27T11:22:59.073Z,9.443748
2023-03-27T11:23:59.025Z,9.443711
2023-03-27T11:24:59.001Z,9.443801
2023-03-27T11:25:59.042Z,9.443837
2023-03-27T11:26:59.049Z,9.443933
2023-03-27T11:27:59.085Z,9.443851
2023-03-27T11:28:58.991Z,9.443933
2023-03-27T11:29:59.014Z,9.443866
2023-03-27T11:30:59.247Z,9.443845
2023-03-27T11:32:00.059Z,9.443811
2023-03-27T11:32:59.037Z,9.443995
2023-03-27T11:33:58.965Z,9.443962
2023-03-27T11:34:58.969Z,9.444135
2023-03-27T11:35:59.017Z,9.444360
2023-03-27T11:36:58.945Z,9.444312
2023-03-27T11:37:59.031Z,9.444262
2023-03-27T11:38:58.921Z,9.444272
2023-03-27T11:39:58.905Z,9.444175
2023-03-27T11:40:59.128Z,9.444144
2023-03-27T11:41:58.949Z,9.443939
2023-03-27T11:42:58.912Z,9.443825
2023-03-27T11:43:58.909Z,9.443926
2023-03-27T11:44:58.931Z,9.444007
2023-03-27T11:45:58.885Z,9.443969
2023-03-27T11:46:58.978Z,9.443875
2023-03-27T11:47:58.953Z,9.443862